Time;durP1;ratioP1;P1;durP2;ratioP2;P2;SDS_P1;SDS_P2;PMS_P1;PMS_P2;Temp;Humidity;BMP_temperature;BMP_pressure;BME280_temperature;BME280_humidity;BME280_pressure;Samples;Min_cycle;Max_cycle;Signal;HPM_P1;HPM_P2
2023/04/21 00:03:54;;;;;;;14.30;10.70;;;;;;;;;;8303709;28;20110;-73
2023/04/21 00:07:54;;;;;;;12.48;10.35;;;;;;;;;;8300134;28;20161;-72
2023/04/21 00:11:55;;;;;;;14.43;10.82;;;;;;;;;;8305880;28;20040;-72
2023/04/21 00:15:55;;;;;;;34.37;12.30;;;;;;;;;;8306430;28;20044;-72
2023/04/21 00:19:55;;;;;;;14.10;11.73;;;;;;;;;;8304732;28;20279;-72
2023/04/21 00:23:55;;;;;;;15.83;12.23;;;;;;;;;;8294591;28;20026;-72
2023/04/21 00:27:56;;;;;;;151.00;15.13;;;;;;;;;;8290632;28;20291;-72
2023/04/21 00:31:56;;;;;;;161.77;13.90;;;;;;;;;;8291427;28;20107;-73
2023/04/21 00:35:58;;;;;;;193.52;12.65;;;;;;;;;;8290060;28;20107;-73
2023/04/21 00:39:58;;;;;;;217.63;13.82;;;;;;;;;;8293450;28;20017;-72
2023/04/21 00:44:02;;;;;;;53.85;10.20;;;;;;;;;;8304495;28;20718;-73
2023/04/21 00:48:02;;;;;;;102.97;10.63;;;;;;;;;;8305025;28;20789;-72
2023/04/21 00:52:05;;;;;;;77.33;10.17;;;;;;;;;;8309626;28;20072;-72
2023/04/21 00:56:06;;;;;;;177.00;12.03;;;;;;;;;;8313482;28;20359;-73
2023/04/21 01:00:07;;;;;;;197.30;12.52;;;;;;;;;;8294896;28;20315;-73
2023/04/21 01:04:09;;;;;;;134.57;11.60;;;;;;;;;;8323606;28;20564;-72
2023/04/21 01:08:09;;;;;;;319.50;14.82;;;;;;;;;;8309776;28;20036;-72
2023/04/21 01:12:10;;;;;;;164.05;12.02;;;;;;;;;;8314180;28;20038;-72
2023/04/21 01:16:15;;;;;;;393.48;16.90;;;;;;;;;;8307747;28;20128;-72
2023/04/21 01:20:15;;;;;;;259.23;14.25;;;;;;;;;;8294714;28;20108;-72
2023/04/21 01:24:15;;;;;;;138.03;11.87;;;;;;;;;;8295368;28;20037;-73
2023/04/21 01:28:20;;;;;;;112.93;11.40;;;;;;;;;;8300063;28;20036;-72
2023/04/21 01:32:23;;;;;;;327.45;15.60;;;;;;;;;;8313117;28;20033;-72
2023/04/21 01:36:23;;;;;;;205.02;13.30;;;;;;;;;;8311490;28;20044;-73
2023/04/21 01:40:23;;;;;;;225.50;14.38;;;;;;;;;;8314709;28;20077;-72
2023/04/21 01:44:24;;;;;;;162.43;13.13;;;;;;;;;;8321702;28;20152;-73
2023/04/21 01:48:24;;;;;;;231.52;15.05;;;;;;;;;;8316340;28;20041;-73
2023/04/21 01:52:25;;;;;;;73.00;11.30;;;;;;;;;;8318750;28;20021;-73
2023/04/21 01:56:25;;;;;;;164.13;12.70;;;;;;;;;;8320437;28;20034;-73
2023/04/21 02:00:25;;;;;;;271.67;17.35;;;;;;;;;;8316811;28;20045;-72
2023/04/21 02:04:25;;;;;;;86.88;11.43;;;;;;;;;;8316738;28;20025;-73
2023/04/21 02:08:25;;;;;;;24.88;9.68;;;;;;;;;;8319888;28;20175;-73
2023/04/21 02:12:26;;;;;;;87.20;12.30;;;;;;;;;;8317154;28;20112;-72
2023/04/21 02:16:32;;;;;;;55.63;11.77;;;;;;;;;;8314081;28;20041;-72
2023/04/21 02:20:32;;;;;;;109.03;13.38;;;;;;;;;;8314301;28;20025;-72
2023/04/21 02:24:33;;;;;;;44.42;11.00;;;;;;;;;;8313944;28;20021;-72
2023/04/21 02:28:33;;;;;;;37.25;9.85;;;;;;;;;;8316042;28;20114;-73
2023/04/21 02:32:33;;;;;;;115.15;12.48;;;;;;;;;;8322424;28;20033;-72
2023/04/21 02:36:34;;;;;;;15.75;10.00;;;;;;;;;;8316766;28;20109;-73
2023/04/21 02:40:34;;;;;;;14.88;9.75;;;;;;;;;;8315486;28;20036;-73
2023/04/21 02:44:38;;;;;;;18.90;11.93;;;;;;;;;;8317710;28;20026;-73
2023/04/21 02:48:38;;;;;;;62.63;10.80;;;;;;;;;;8310002;28;20075;-73
2023/04/21 02:52:38;;;;;;;51.78;12.07;;;;;;;;;;8313912;28;20470;-73
2023/04/21 02:56:38;;;;;;;92.22;12.77;;;;;;;;;;8316750;28;20021;-73
2023/04/21 03:00:39;;;;;;;92.33;12.30;;;;;;;;;;8310496;28;20038;-73
2023/04/21 03:04:39;;;;;;;177.10;13.87;;;;;;;;;;8318302;28;20083;-73
2023/04/21 03:08:39;;;;;;;188.15;13.60;;;;;;;;;;8315437;28;20340;-73
2023/04/21 03:12:39;;;;;;;174.68;13.50;;;;;;;;;;8314415;28;20028;-73
2023/04/21 03:16:39;;;;;;;346.90;16.13;;;;;;;;;;8313427;28;20038;-73
2023/04/21 03:20:40;;;;;;;307.50;15.43;;;;;;;;;;8308994;28;21110;-73
2023/04/21 03:24:40;;;;;;;227.95;13.77;;;;;;;;;;8307322;28;20286;-73
2023/04/21 03:28:40;;;;;;;221.95;13.57;;;;;;;;;;8304185;28;21020;-73
2023/04/21 03:32:40;;;;;;;245.35;13.90;;;;;;;;;;8303732;28;20433;-73
2023/04/21 03:36:40;;;;;;;92.88;11.10;;;;;;;;;;8301305;28;20021;-73
2023/04/21 03:40:41;;;;;;;94.93;11.30;;;;;;;;;;8296589;28;20029;-73
2023/04/21 03:44:41;;;;;;;114.00;11.32;;;;;;;;;;8298811;28;20017;-73
2023/04/21 03:48:41;;;;;;;119.20;11.82;;;;;;;;;;8301733;28;20667;-73
2023/04/21 03:52:41;;;;;;;47.55;11.30;;;;;;;;;;8306566;28;20161;-73
2023/04/21 03:56:41;;;;;;;102.13;11.00;;;;;;;;;;8308069;28;20030;-73
2023/04/21 04:00:42;;;;;;;41.80;9.95;;;;;;;;;;8301556;28;20030;-73
2023/04/21 04:04:42;;;;;;;59.57;10.87;;;;;;;;;;8305699;28;20084;-73
2023/04/21 04:08:42;;;;;;;40.03;10.27;;;;;;;;;;8307501;28;20284;-73
2023/04/21 04:12:42;;;;;;;70.85;11.13;;;;;;;;;;8306039;28;20496;-73
2023/04/21 04:16:43;;;;;;;74.68;11.63;;;;;;;;;;8307784;28;21354;-73
2023/04/21 04:20:43;;;;;;;62.25;11.02;;;;;;;;;;8310628;28;20087;-73
2023/04/21 04:24:43;;;;;;;199.80;13.70;;;;;;;;;;8305211;28;20029;-73
2023/04/21 04:28:44;;;;;;;47.83;9.82;;;;;;;;;;8301590;28;20013;-73
2023/04/21 04:32:44;;;;;;;24.73;10.43;;;;;;;;;;8301220;28;20033;-73
2023/04/21 04:36:45;;;;;;;190.50;14.13;;;;;;;;;;8305855;28;20025;-73
2023/04/21 04:40:52;;;;;;;25.50;10.05;;;;;;;;;;8307995;28;20139;-73
2023/04/21 04:44:52;;;;;;;46.95;10.73;;;;;;;;;;8296368;28;20048;-73
2023/04/21 04:48:52;;;;;;;77.25;11.18;;;;;;;;;;8291300;28;20041;-73
2023/04/21 04:52:53;;;;;;;50.75;11.25;;;;;;;;;;8288668;28;20099;-73
2023/04/21 04:56:53;;;;;;;67.35;11.93;;;;;;;;;;8289766;28;20573;-73
2023/04/21 05:00:53;;;;;;;46.55;12.23;;;;;;;;;;8287187;28;20037;-73
2023/04/21 05:04:53;;;;;;;113.57;13.80;;;;;;;;;;8286175;28;20032;-73
2023/04/21 05:08:53;;;;;;;40.42;11.80;;;;;;;;;;8282467;28;20021;-73
2023/04/21 05:12:54;;;;;;;67.97;12.77;;;;;;;;;;8287993;28;20026;-73
2023/04/21 05:16:54;;;;;;;55.60;11.57;;;;;;;;;;8285900;28;20139;-73
2023/04/21 05:20:55;;;;;;;64.35;10.73;;;;;;;;;;8285266;28;20038;-72
2023/04/21 05:24:55;;;;;;;36.63;10.43;;;;;;;;;;8288833;28;20116;-73
2023/04/21 05:28:55;;;;;;;110.43;12.13;;;;;;;;;;8285186;28;20124;-74
2023/04/21 05:32:56;;;;;;;43.00;10.60;;;;;;;;;;8288102;28;20037;-74
2023/04/21 05:36:56;;;;;;;39.78;10.13;;;;;;;;;;8286541;28;20592;-74
2023/04/21 05:40:56;;;;;;;36.83;9.20;;;;;;;;;;8287416;28;20033;-73
2023/04/21 05:44:56;;;;;;;37.47;9.63;;;;;;;;;;8286766;28;20264;-73
2023/04/21 05:48:57;;;;;;;60.58;10.15;;;;;;;;;;8288976;28;20041;-73
2023/04/21 05:52:57;;;;;;;45.58;10.18;;;;;;;;;;8289667;28;20434;-73
2023/04/21 05:56:57;;;;;;;67.38;10.55;;;;;;;;;;8293143;28;20101;-73
2023/04/21 06:00:57;;;;;;;74.65;10.32;;;;;;;;;;8291159;28;20044;-73
2023/04/21 06:04:57;;;;;;;42.47;9.88;;;;;;;;;;8290925;28;20053;-73
2023/04/21 06:08:58;;;;;;;82.55;10.13;;;;;;;;;;8290446;28;20021;-73
2023/04/21 06:12:58;;;;;;;45.00;9.38;;;;;;;;;;8292912;28;20109;-73
2023/04/21 06:16:58;;;;;;;153.00;11.20;;;;;;;;;;8295386;28;20041;-73
2023/04/21 06:20:58;;;;;;;51.42;9.40;;;;;;;;;;8292389;28;20029;-74
2023/04/21 06:24:59;;;;;;;74.13;9.77;;;;;;;;;;8281796;28;20029;-74
2023/04/21 06:28:59;;;;;;;56.35;9.23;;;;;;;;;;8290334;28;20031;-73
2023/04/21 06:32:59;;;;;;;40.95;8.77;;;;;;;;;;8289746;28;20152;-74
2023/04/21 06:36:59;;;;;;;42.38;8.88;;;;;;;;;;8290425;28;20783;-74
2023/04/21 06:41:00;;;;;;;31.95;8.15;;;;;;;;;;8288954;28;20831;-73
2023/04/21 06:45:00;;;;;;;36.33;8.20;;;;;;;;;;8292807;28;20030;-73
2023/04/21 06:49:00;;;;;;;28.83;8.07;;;;;;;;;;8292785;28;20052;-74
2023/04/21 06:53:00;;;;;;;67.88;9.38;;;;;;;;;;8284773;28;20021;-74
2023/04/21 06:57:01;;;;;;;78.53;10.15;;;;;;;;;;8291156;28;20480;-74
2023/04/21 07:01:01;;;;;;;102.78;10.52;;;;;;;;;;8286473;28;20033;-74
2023/04/21 07:05:01;;;;;;;115.32;10.90;;;;;;;;;;8292194;28;20033;-74
2023/04/21 07:09:01;;;;;;;109.22;11.13;;;;;;;;;;8290424;28;20151;-74
2023/04/21 07:13:01;;;;;;;106.28;10.32;;;;;;;;;;8285220;28;20879;-73
2023/04/21 07:17:02;;;;;;;71.13;10.45;;;;;;;;;;8289138;28;20037;-74
2023/04/21 07:21:02;;;;;;;44.50;10.35;;;;;;;;;;8293898;28;20026;-73
2023/04/21 07:25:05;;;;;;;35.83;11.50;;;;;;;;;;8297775;28;20025;-74
2023/04/21 07:29:05;;;;;;;20.10;10.57;;;;;;;;;;8306000;28;20915;-74
2023/04/21 07:33:05;;;;;;;13.52;10.00;;;;;;;;;;8319580;28;20096;-74
2023/04/21 07:37:05;;;;;;;12.75;9.60;;;;;;;;;;8317210;28;20033;-74
2023/04/21 07:41:06;;;;;;;13.20;10.60;;;;;;;;;;8315702;28;20037;-74
2023/04/21 07:45:06;;;;;;;13.83;10.40;;;;;;;;;;8328051;28;20025;-75
2023/04/21 07:49:06;;;;;;;10.85;9.48;;;;;;;;;;8333394;28;21128;-74
2023/04/21 07:53:07;;;;;;;14.77;11.27;;;;;;;;;;8335329;28;20033;-74
2023/04/21 07:57:07;;;;;;;8.60;7.70;;;;;;;;;;8339854;28;20033;-74
2023/04/21 08:01:07;;;;;;;9.77;8.27;;;;;;;;;;8344141;28;20272;-74
2023/04/21 08:05:07;;;;;;;7.77;7.07;;;;;;;;;;8342513;28;20275;-74
2023/04/21 08:09:08;;;;;;;8.70;6.85;;;;;;;;;;8345088;28;20288;-74
2023/04/21 08:13:08;;;;;;;8.07;7.07;;;;;;;;;;8346658;28;20105;-75
2023/04/21 08:17:08;;;;;;;10.30;8.35;;;;;;;;;;8349154;28;20071;-75
2023/04/21 08:21:08;;;;;;;8.93;7.70;;;;;;;;;;8344457;28;20021;-74
2023/04/21 08:25:08;;;;;;;6.60;5.72;;;;;;;;;;8349127;28;20105;-75
2023/04/21 08:29:09;;;;;;;8.23;6.60;;;;;;;;;;8347000;28;20029;-75
2023/04/21 08:33:12;;;;;;;10.77;7.53;;;;;;;;;;8340965;28;20056;-75
2023/04/21 08:37:12;;;;;;;6.85;6.15;;;;;;;;;;8342645;28;20032;-75
2023/04/21 08:41:13;;;;;;;5.95;5.35;;;;;;;;;;8338407;28;20029;-75
2023/04/21 08:45:13;;;;;;;7.63;5.30;;;;;;;;;;8328231;28;20301;-75
2023/04/21 08:49:16;;;;;;;6.50;5.68;;;;;;;;;;8326391;28;20029;-75
2023/04/21 08:53:16;;;;;;;6.45;5.70;;;;;;;;;;8337103;28;20017;-75
2023/04/21 08:57:17;;;;;;;5.90;5.30;;;;;;;;;;8331785;28;20029;-74
2023/04/21 09:01:17;;;;;;;5.43;4.93;;;;;;;;;;8330840;28;20277;-76
2023/04/21 09:05:21;;;;;;;5.10;4.60;;;;;;;;;;8330866;28;20349;-75
2023/04/21 09:09:21;;;;;;;6.03;4.60;;;;;;;;;;8323608;28;20080;-75
2023/04/21 09:13:30;;;;;;;5.30;4.35;;;;;;;;;;8326060;28;20053;-75
2023/04/21 09:17:35;;;;;;;4.90;4.50;;;;;;;;;;8328873;28;21431;-74
2023/04/21 09:21:35;;;;;;;6.03;3.60;;;;;;;;;;8323056;28;20052;-75
2023/04/21 09:25:40;;;;;;;5.03;4.53;;;;;;;;;;8321851;28;20017;-75
2023/04/21 09:29:46;;;;;;;4.78;4.30;;;;;;;;;;8328995;28;20096;-75
2023/04/21 09:33:48;;;;;;;3.65;3.35;;;;;;;;;;8331692;28;20037;-75
2023/04/21 09:37:48;;;;;;;4.00;3.58;;;;;;;;;;8332340;28;20044;-75
2023/04/21 09:41:48;;;;;;;3.47;3.17;;;;;;;;;;8336241;28;20033;-75
2023/04/21 09:45:48;;;;;;;4.57;4.03;;;;;;;;;;8336233;28;20649;-75
2023/04/21 09:49:52;;;;;;;4.43;4.03;;;;;;;;;;8344770;28;20013;-75
2023/04/21 09:53:56;;;;;;;4.00;3.60;;;;;;;;;;8333648;28;20010;-75
2023/04/21 09:57:58;;;;;;;3.50;3.20;;;;;;;;;;8328476;28;20056;-75
2023/04/21 10:01:59;;;;;;;5.22;2.50;;;;;;;;;;8336950;28;20036;-75
2023/04/21 10:05:59;;;;;;;5.60;4.25;;;;;;;;;;8323901;28;20037;-76
2023/04/21 10:10:00;;;;;;;2.97;2.60;;;;;;;;;;8292070;28;20025;-76
2023/04/21 10:14:01;;;;;;;3.50;2.80;;;;;;;;;;8287858;28;20291;-75
2023/04/21 10:18:30;;;;;;;4.18;3.78;;;;;;;;;;8285091;28;20403;-75
2023/04/21 10:22:31;;;;;;;3.22;2.92;;;;;;;;;;8285630;28;20037;-76
2023/04/21 10:26:33;;;;;;;3.17;2.83;;;;;;;;;;8288522;28;20035;-75
2023/04/21 10:30:33;;;;;;;3.50;3.20;;;;;;;;;;8291922;28;20666;-76
2023/04/21 10:34:34;;;;;;;4.32;3.75;;;;;;;;;;8301055;28;20398;-76
2023/04/21 10:38:42;;;;;;;3.80;3.50;;;;;;;;;;8288091;28;20035;-76
2023/04/21 10:42:42;;;;;;;3.60;3.35;;;;;;;;;;8283777;28;20033;-76
2023/04/21 10:46:46;;;;;;;3.60;3.30;;;;;;;;;;8287318;28;20044;-75
2023/04/21 10:50:47;;;;;;;3.72;3.42;;;;;;;;;;8286681;28;20116;-75
2023/04/21 10:54:48;;;;;;;3.92;3.60;;;;;;;;;;8283453;28;20061;-76
2023/04/21 10:58:50;;;;;;;3.72;3.42;;;;;;;;;;8284014;28;20028;-76
2023/04/21 11:02:58;;;;;;;4.30;3.90;;;;;;;;;;8284317;28;20038;-75
2023/04/21 11:07:05;;;;;;;3.95;3.65;;;;;;;;;;8282612;28;20029;-75
2023/04/21 11:11:05;;;;;;;3.58;3.28;;;;;;;;;;8285044;28;20022;-75
2023/04/21 11:15:10;;;;;;;4.07;3.78;;;;;;;;;;8281498;28;20062;-76
2023/04/21 11:19:10;;;;;;;3.13;2.83;;;;;;;;;;8270991;28;20029;-76
2023/04/21 11:23:15;;;;;;;4.10;3.80;;;;;;;;;;8272908;28;20041;-76
2023/04/21 11:27:16;;;;;;;4.50;4.10;;;;;;;;;;8285417;28;20048;-76
2023/04/21 11:31:16;;;;;;;5.45;3.88;;;;;;;;;;8279644;28;20034;-76
2023/04/21 11:35:17;;;;;;;5.20;4.47;;;;;;;;;;8280435;28;20061;-77
2023/04/21 11:39:20;;;;;;;4.78;4.28;;;;;;;;;;8279557;28;20033;-76
2023/04/21 11:43:21;;;;;;;5.32;4.82;;;;;;;;;;8283417;28;20039;-76
2023/04/21 11:47:25;;;;;;;5.43;4.93;;;;;;;;;;8281086;28;20075;-76
2023/04/21 11:51:26;;;;;;;4.85;4.45;;;;;;;;;;8281504;28;20029;-77
2023/04/21 11:55:27;;;;;;;5.28;4.78;;;;;;;;;;8284491;28;20136;-76
2023/04/21 11:59:28;;;;;;;5.25;4.78;;;;;;;;;;8280042;28;20092;-76
2023/04/21 12:03:31;;;;;;;6.65;5.70;;;;;;;;;;8281663;28;20044;-76
2023/04/21 12:07:35;;;;;;;7.55;6.85;;;;;;;;;;8284444;28;20029;-76
2023/04/21 12:11:35;;;;;;;7.88;6.38;;;;;;;;;;8287911;28;20031;-75
2023/04/21 12:15:35;;;;;;;6.97;5.50;;;;;;;;;;8281436;28;20117;-74
2023/04/21 12:19:38;;;;;;;5.30;4.80;;;;;;;;;;8286022;28;20105;-76
2023/04/21 12:23:38;;;;;;;7.60;6.43;;;;;;;;;;8282368;28;20149;-76
2023/04/21 12:27:48;;;;;;;6.80;6.10;;;;;;;;;;8288388;28;20052;-76
2023/04/21 12:31:48;;;;;;;6.05;5.43;;;;;;;;;;8285262;28;20026;-76
2023/04/21 12:35:49;;;;;;;9.32;6.40;;;;;;;;;;8284937;28;20568;-76
2023/04/21 12:39:49;;;;;;;8.57;7.68;;;;;;;;;;8287256;28;20025;-76
2023/04/21 12:43:49;;;;;;;8.85;7.95;;;;;;;;;;8288187;28;20032;-76
2023/04/21 12:47:50;;;;;;;9.75;8.75;;;;;;;;;;8292472;28;20148;-76
2023/04/21 12:51:50;;;;;;;9.30;8.25;;;;;;;;;;8279543;28;20087;-75
2023/04/21 12:55:50;;;;;;;8.02;7.22;;;;;;;;;;8283286;28;20018;-76
2023/04/21 12:59:50;;;;;;;11.77;10.13;;;;;;;;;;8283535;28;20017;-76
2023/04/21 13:03:50;;;;;;;10.43;8.90;;;;;;;;;;8285599;28;20029;-76
2023/04/21 13:07:51;;;;;;;15.43;8.07;;;;;;;;;;8281681;28;20029;-77
2023/04/21 13:11:51;;;;;;;11.02;9.75;;;;;;;;;;8283509;28;20017;-76
2023/04/21 13:15:52;;;;;;;11.00;9.32;;;;;;;;;;8283678;28;20030;-75
2023/04/21 13:19:52;;;;;;;9.43;8.15;;;;;;;;;;8281662;28;20116;-75
2023/04/21 13:23:52;;;;;;;17.02;13.98;;;;;;;;;;8286395;28;20033;-76
2023/04/21 13:27:53;;;;;;;10.70;9.35;;;;;;;;;;8284490;28;20029;-77
2023/04/21 13:31:53;;;;;;;10.18;8.82;;;;;;;;;;8275435;28;20041;-75
2023/04/21 13:35:53;;;;;;;9.05;8.13;;;;;;;;;;8288696;28;20018;-75
2023/04/21 13:39:53;;;;;;;9.45;7.78;;;;;;;;;;8271454;28;20140;-75
2023/04/21 13:43:54;;;;;;;10.50;9.05;;;;;;;;;;8281063;28;20026;-75
2023/04/21 13:47:54;;;;;;;10.80;9.70;;;;;;;;;;8278425;28;20128;-75
2023/04/21 13:51:54;;;;;;;16.02;13.77;;;;;;;;;;8283853;28;20661;-75
2023/04/21 13:55:55;;;;;;;11.90;10.20;;;;;;;;;;8281736;28;20024;-75
2023/04/21 13:59:55;;;;;;;10.57;9.02;;;;;;;;;;8277887;28;20018;-75
2023/04/21 14:03:56;;;;;;;11.05;9.63;;;;;;;;;;8277121;28;20041;-75
2023/04/21 14:07:56;;;;;;;10.95;8.23;;;;;;;;;;8281114;28;20109;-75
2023/04/21 14:11:56;;;;;;;13.35;9.30;;;;;;;;;;8284278;28;20013;-75
2023/04/21 14:15:57;;;;;;;10.48;9.07;;;;;;;;;;8287648;28;20087;-75
2023/04/21 14:19:57;;;;;;;12.10;9.32;;;;;;;;;;8291400;28;20132;-76
2023/04/21 14:24:00;;;;;;;8.98;8.07;;;;;;;;;;8280376;28;20992;-77
2023/04/21 14:28:00;;;;;;;;;;;;;;;;;;8287627;28;20021;-76
2023/04/21 14:32:01;;;;;;;9.55;8.48;;;;;;;;;;8288622;28;20179;-76
2023/04/21 14:36:01;;;;;;;10.35;8.05;;;;;;;;;;8287268;28;20028;-76
2023/04/21 14:40:02;;;;;;;9.13;7.93;;;;;;;;;;8295049;28;20120;-76
2023/04/21 14:44:03;;;;;;;10.57;7.88;;;;;;;;;;8288786;28;20264;-76
2023/04/21 14:48:03;;;;;;;12.23;8.23;;;;;;;;;;8285627;28;20061;-76
2023/04/21 14:52:03;;;;;;;9.02;8.13;;;;;;;;;;8286156;28;20100;-76
2023/04/21 14:56:03;;;;;;;9.30;8.07;;;;;;;;;;8285024;28;20032;-76
2023/04/21 15:00:05;;;;;;;11.67;8.90;;;;;;;;;;8284727;28;20588;-75
2023/04/21 15:04:05;;;;;;;9.70;8.45;;;;;;;;;;8286491;28;21128;-76
2023/04/21 15:08:05;;;;;;;9.73;8.73;;;;;;;;;;8287675;28;20154;-75
2023/04/21 15:12:06;;;;;;;8.80;7.43;;;;;;;;;;8288543;28;20022;-75
2023/04/21 15:16:06;;;;;;;11.38;9.18;;;;;;;;;;8286368;28;20387;-76
2023/04/21 15:20:08;;;;;;;8.90;8.00;;;;;;;;;;8288012;28;20064;-75
2023/04/21 15:24:09;;;;;;;8.75;7.85;;;;;;;;;;8287622;28;20033;-76
2023/04/21 15:28:09;;;;;;;9.90;8.07;;;;;;;;;;8287199;28;20083;-76
2023/04/21 15:32:09;;;;;;;9.35;8.20;;;;;;;;;;8287221;28;20034;-75
2023/04/21 15:36:09;;;;;;;9.70;8.70;;;;;;;;;;8286690;28;20017;-75
2023/04/21 15:40:09;;;;;;;11.57;8.63;;;;;;;;;;8287586;28;20037;-75
2023/04/21 15:44:10;;;;;;;10.57;9.55;;;;;;;;;;8289149;28;20024;-75
2023/04/21 15:48:11;;;;;;;11.20;8.45;;;;;;;;;;8286054;28;20137;-76
2023/04/21 15:52:12;;;;;;;9.70;8.55;;;;;;;;;;8286765;28;20091;-75
2023/04/21 15:56:13;;;;;;;10.93;8.68;;;;;;;;;;8292665;28;20022;-75
2023/04/21 16:00:14;;;;;;;9.20;7.20;;;;;;;;;;8284966;28;20120;-76
2023/04/21 16:04:14;;;;;;;9.25;8.20;;;;;;;;;;8285314;28;20044;-76
2023/04/21 16:08:14;;;;;;;9.43;7.77;;;;;;;;;;8285015;28;20072;-76
2023/04/21 16:12:14;;;;;;;7.65;6.63;;;;;;;;;;8286297;28;20398;-76
2023/04/21 16:16:14;;;;;;;9.07;8.18;;;;;;;;;;8287276;28;20029;-76
2023/04/21 16:20:15;;;;;;;7.97;7.17;;;;;;;;;;8285599;28;20892;-76
2023/04/21 16:24:15;;;;;;;7.72;6.80;;;;;;;;;;8275240;28;20029;-76
2023/04/21 16:28:15;;;;;;;8.30;7.30;;;;;;;;;;8285666;28;20144;-76
2023/04/21 16:32:15;;;;;;;6.78;6.18;;;;;;;;;;8285856;28;20106;-76
2023/04/21 16:36:15;;;;;;;8.93;6.68;;;;;;;;;;8286029;28;20546;-76
2023/04/21 16:40:16;;;;;;;7.72;6.88;;;;;;;;;;8285166;28;20750;-75
2023/04/21 16:44:16;;;;;;;8.18;7.13;;;;;;;;;;8286480;28;20189;-75
2023/04/21 16:48:16;;;;;;;12.65;7.03;;;;;;;;;;8283360;28;20037;-75
2023/04/21 16:52:17;;;;;;;13.88;8.30;;;;;;;;;;8285238;28;20037;-74
2023/04/21 16:56:19;;;;;;;5.17;3.83;;;;;;;;;;8284537;28;20079;-74
2023/04/21 17:00:19;;;;;;;3.65;3.33;;;;;;;;;;8282418;28;20774;-74
2023/04/21 17:04:19;;;;;;;4.68;3.63;;;;;;;;;;8282133;28;20032;-74
2023/04/21 17:08:19;;;;;;;2.83;2.30;;;;;;;;;;8282383;28;20029;-74
2023/04/21 17:12:20;;;;;;;4.03;2.60;;;;;;;;;;8285709;28;20083;-74
2023/04/21 17:16:20;;;;;;;3.58;2.10;;;;;;;;;;8284058;28;20091;-74
2023/04/21 17:20:20;;;;;;;2.45;2.08;;;;;;;;;;8282291;28;20101;-74
2023/04/21 17:24:21;;;;;;;3.23;2.10;;;;;;;;;;8283714;28;20041;-74
2023/04/21 17:28:21;;;;;;;2.92;2.20;;;;;;;;;;8284240;28;20860;-74
2023/04/21 17:32:21;;;;;;;2.30;2.10;;;;;;;;;;8284506;28;20041;-74
2023/04/21 17:36:22;;;;;;;2.40;1.85;;;;;;;;;;8281136;28;20037;-74
2023/04/21 17:40:22;;;;;;;2.00;1.60;;;;;;;;;;8278867;28;20037;-74
2023/04/21 17:44:22;;;;;;;4.27;1.90;;;;;;;;;;8283780;28;20029;-74
2023/04/21 17:48:23;;;;;;;1.63;1.52;;;;;;;;;;8286667;28;20034;-74
2023/04/21 17:52:23;;;;;;;1.60;1.50;;;;;;;;;;8289000;28;20025;-74
2023/04/21 17:56:23;;;;;;;2.55;1.70;;;;;;;;;;8290433;28;20091;-74
2023/04/21 18:00:24;;;;;;;2.17;1.70;;;;;;;;;;8284122;28;20183;-74
2023/04/21 18:04:25;;;;;;;2.42;1.48;;;;;;;;;;8281240;28;20042;-74
2023/04/21 18:08:26;;;;;;;3.17;1.40;;;;;;;;;;8283364;28;20159;-74
2023/04/21 18:12:29;;;;;;;1.88;1.77;;;;;;;;;;8285871;28;20048;-74
2023/04/21 18:16:29;;;;;;;2.38;2.17;;;;;;;;;;8284991;28;20180;-75
2023/04/21 18:20:29;;;;;;;3.17;1.85;;;;;;;;;;8283084;28;20057;-74
2023/04/21 18:24:29;;;;;;;1.85;1.55;;;;;;;;;;8283501;28;20045;-74
2023/04/21 18:28:30;;;;;;;2.65;1.70;;;;;;;;;;8286945;28;20025;-74
2023/04/21 18:32:32;;;;;;;1.67;1.58;;;;;;;;;;8283874;28;20072;-74
2023/04/21 18:36:32;;;;;;;3.33;1.70;;;;;;;;;;8284644;28;20026;-74
2023/04/21 18:40:33;;;;;;;1.70;1.60;;;;;;;;;;8274591;28;20076;-74
2023/04/21 18:44:34;;;;;;;3.45;1.40;;;;;;;;;;8283743;28;20635;-74
2023/04/21 18:48:34;;;;;;;1.52;1.42;;;;;;;;;;8283802;28;20029;-74
2023/04/21 18:52:34;;;;;;;1.67;1.50;;;;;;;;;;8281338;28;20472;-74
2023/04/21 18:56:34;;;;;;;2.58;1.52;;;;;;;;;;8281997;28;20026;-74
2023/04/21 19:00:37;;;;;;;2.60;1.60;;;;;;;;;;8281002;28;20037;-74
2023/04/21 19:04:37;;;;;;;1.67;1.40;;;;;;;;;;8283984;28;20025;-74
2023/04/21 19:08:38;;;;;;;2.88;1.38;;;;;;;;;;8287921;28;20040;-74
2023/04/21 19:12:40;;;;;;;2.75;1.30;;;;;;;;;;8294548;28;20036;-74
2023/04/21 19:16:40;;;;;;;2.25;1.50;;;;;;;;;;8282568;28;20041;-74
2023/04/21 19:20:40;;;;;;;1.52;1.42;;;;;;;;;;8284575;28;20079;-73
2023/04/21 19:24:40;;;;;;;1.63;1.40;;;;;;;;;;8281612;28;20029;-73
2023/04/21 19:28:41;;;;;;;1.52;1.42;;;;;;;;;;8278553;28;20026;-73
2023/04/21 19:32:41;;;;;;;2.08;1.55;;;;;;;;;;8284472;28;20042;-72
2023/04/21 19:36:42;;;;;;;1.40;1.30;;;;;;;;;;8284101;28;20032;-73
2023/04/21 19:40:43;;;;;;;1.92;1.25;;;;;;;;;;8283191;28;20029;-72
2023/04/21 19:44:43;;;;;;;2.28;1.40;;;;;;;;;;8282689;28;20516;-73
2023/04/21 19:48:44;;;;;;;2.33;1.40;;;;;;;;;;8282292;28;20091;-73
2023/04/21 19:52:45;;;;;;;1.33;1.23;;;;;;;;;;8283991;28;21104;-73
2023/04/21 19:56:45;;;;;;;1.42;1.30;;;;;;;;;;8284073;28;20820;-73
2023/04/21 20:00:46;;;;;;;2.17;1.60;;;;;;;;;;8278462;28;20465;-73
2023/04/21 20:04:47;;;;;;;2.03;1.43;;;;;;;;;;8282163;28;20326;-73
2023/04/21 20:08:47;;;;;;;1.70;1.30;;;;;;;;;;8281660;28;20021;-74
2023/04/21 20:12:47;;;;;;;2.30;1.50;;;;;;;;;;8281822;28;20024;-73
2023/04/21 20:16:47;;;;;;;1.55;1.45;;;;;;;;;;8282150;28;20965;-73
2023/04/21 20:20:48;;;;;;;1.48;1.38;;;;;;;;;;8282184;28;20045;-74
2023/04/21 20:24:50;;;;;;;1.60;1.50;;;;;;;;;;8283136;28;20025;-73
2023/04/21 20:28:51;;;;;;;1.80;1.70;;;;;;;;;;8279427;28;20022;-73
2023/04/21 20:32:51;;;;;;;1.50;1.40;;;;;;;;;;8284873;28;20038;-74
2023/04/21 20:36:53;;;;;;;1.88;1.50;;;;;;;;;;8280465;28;20068;-74
2023/04/21 20:40:53;;;;;;;1.92;1.73;;;;;;;;;;8283534;28;20149;-74
2023/04/21 20:44:53;;;;;;;2.00;1.67;;;;;;;;;;8285308;28;20057;-74
2023/04/21 20:48:54;;;;;;;1.75;1.60;;;;;;;;;;8284423;28;20033;-74
2023/04/21 20:52:55;;;;;;;2.47;2.08;;;;;;;;;;8286661;28;20701;-74
2023/04/21 20:56:55;;;;;;;2.10;1.90;;;;;;;;;;8285257;28;20799;-74
2023/04/21 21:00:56;;;;;;;1.88;1.77;;;;;;;;;;8287282;28;20073;-74
2023/04/21 21:04:56;;;;;;;2.17;1.80;;;;;;;;;;8281626;28;20041;-74
2023/04/21 21:08:56;;;;;;;2.25;1.92;;;;;;;;;;8285613;28;20017;-74
2023/04/21 21:12:58;;;;;;;2.20;2.00;;;;;;;;;;8281025;28;20049;-74
2023/04/21 21:17:00;;;;;;;2.30;1.83;;;;;;;;;;8283370;28;20506;-74
2023/04/21 21:21:00;;;;;;;2.38;1.80;;;;;;;;;;8287760;28;20025;-74
2023/04/21 21:25:00;;;;;;;3.42;1.95;;;;;;;;;;8276093;28;20075;-75
2023/04/21 21:29:01;;;;;;;2.75;1.90;;;;;;;;;;8285660;28;20091;-74
2023/04/21 21:33:01;;;;;;;2.05;1.70;;;;;;;;;;8290773;28;20192;-74
2023/04/21 21:37:01;;;;;;;2.75;1.88;;;;;;;;;;8283267;28;20025;-74
2023/04/21 21:41:01;;;;;;;1.58;1.48;;;;;;;;;;8284709;28;20069;-74
2023/04/21 21:45:02;;;;;;;1.83;1.50;;;;;;;;;;8285510;28;20104;-74
2023/04/21 21:49:02;;;;;;;1.70;1.60;;;;;;;;;;8289269;28;20443;-74
2023/04/21 21:53:02;;;;;;;1.90;1.60;;;;;;;;;;8299364;28;20045;-74
2023/04/21 21:57:03;;;;;;;2.65;1.65;;;;;;;;;;8283989;28;20036;-74
2023/04/21 22:01:03;;;;;;;2.43;1.33;;;;;;;;;;8281714;28;20042;-74
2023/04/21 22:05:04;;;;;;;1.80;1.60;;;;;;;;;;8285565;28;20649;-74
2023/04/21 22:09:05;;;;;;;1.65;1.55;;;;;;;;;;8280640;28;20280;-74
2023/04/21 22:13:05;;;;;;;1.30;1.27;;;;;;;;;;8286037;28;20768;-74
2023/04/21 22:17:05;;;;;;;1.55;1.45;;;;;;;;;;8285448;28;20591;-74
2023/04/21 22:21:06;;;;;;;2.55;1.70;;;;;;;;;;8281955;28;20029;-74
2023/04/21 22:25:06;;;;;;;1.58;1.48;;;;;;;;;;8281628;28;20378;-74
2023/04/21 22:29:06;;;;;;;1.45;1.30;;;;;;;;;;8281697;28;20037;-74
2023/04/21 22:33:06;;;;;;;2.40;1.35;;;;;;;;;;8284993;28;20156;-74
2023/04/21 22:37:06;;;;;;;1.65;1.42;;;;;;;;;;8282366;28;20163;-74
2023/04/21 22:41:07;;;;;;;1.50;1.40;;;;;;;;;;8285221;28;20037;-74
2023/04/21 22:45:07;;;;;;;1.07;1.07;;;;;;;;;;8279987;28;20037;-75
2023/04/21 22:49:08;;;;;;;1.77;1.45;;;;;;;;;;8288920;28;20465;-74
2023/04/21 22:53:08;;;;;;;1.42;1.30;;;;;;;;;;8287247;28;20635;-74
2023/04/21 22:57:08;;;;;;;2.22;1.75;;;;;;;;;;8285275;28;20033;-74
2023/04/21 23:01:08;;;;;;;2.00;1.30;;;;;;;;;;8283327;28;20040;-74
2023/04/21 23:05:09;;;;;;;1.40;1.30;;;;;;;;;;8283986;28;20022;-75
2023/04/21 23:09:09;;;;;;;1.58;1.40;;;;;;;;;;8283814;28;21248;-74
2023/04/21 23:13:09;;;;;;;2.83;1.33;;;;;;;;;;8280209;28;20493;-74
2023/04/21 23:17:09;;;;;;;1.98;1.40;;;;;;;;;;8281225;28;20037;-74
2023/04/21 23:21:09;;;;;;;2.28;1.70;;;;;;;;;;8282314;28;20017;-74
2023/04/21 23:25:10;;;;;;;2.43;1.57;;;;;;;;;;8288437;28;20039;-75
2023/04/21 23:29:10;;;;;;;1.38;1.27;;;;;;;;;;8282087;28;20508;-75
2023/04/21 23:33:10;;;;;;;2.17;1.55;;;;;;;;;;8279465;28;20790;-74
2023/04/21 23:37:10;;;;;;;2.50;1.50;;;;;;;;;;8287003;28;20024;-74
2023/04/21 23:41:11;;;;;;;1.60;1.50;;;;;;;;;;8285564;28;20947;-74
2023/04/21 23:45:12;;;;;;;2.25;1.40;;;;;;;;;;8283388;28;20752;-75
2023/04/21 23:49:12;;;;;;;1.88;1.50;;;;;;;;;;8283623;28;20044;-74